Time;durP1;ratioP1;P1;durP2;ratioP2;P2;SDS_P1;SDS_P2;PMS_P1;PMS_P2;Temp;Humidity;BMP_temperature;BMP_pressure;BME280_temperature;BME280_humidity;BME280_pressure;Samples;Min_cycle;Max_cycle;Signal;HPM_P1;HPM_P2
2022/10/06 00:00:24;;;;;;;2.42;2.22;;;;;;;;;;5035903;28;20381;-64
2022/10/06 00:02:50;;;;;;;3.05;2.53;;;;;;;;;;5035785;28;20485;-64
2022/10/06 00:05:15;;;;;;;2.72;2.20;;;;;;;;;;5067709;28;20071;-64
2022/10/06 00:07:41;;;;;;;2.80;2.47;;;;;;;;;;5035976;28;20071;-63
2022/10/06 00:10:07;;;;;;;2.63;2.30;;;;;;;;;;5035683;28;20022;-63
2022/10/06 00:12:38;;;;;;;3.13;2.50;;;;;;;;;;5035524;28;20171;-63
2022/10/06 00:15:04;;;;;;;2.75;2.45;;;;;;;;;;5035617;28;20474;-63
2022/10/06 00:17:30;;;;;;;3.63;2.50;;;;;;;;;;5035757;28;20030;-63
2022/10/06 00:19:55;;;;;;;2.47;2.10;;;;;;;;;;5035504;28;20477;-63
2022/10/06 00:22:20;;;;;;;2.58;2.38;;;;;;;;;;5035373;28;20032;-63
2022/10/06 00:24:46;;;;;;;2.65;2.45;;;;;;;;;;5035247;28;20040;-63
2022/10/06 00:27:11;;;;;;;2.40;2.20;;;;;;;;;;5035379;28;20283;-64
2022/10/06 00:29:41;;;;;;;3.03;2.42;;;;;;;;;;5035199;28;20036;-63
2022/10/06 00:32:08;;;;;;;2.67;2.47;;;;;;;;;;5035611;28;20025;-63
2022/10/06 00:34:35;;;;;;;2.55;2.35;;;;;;;;;;5033998;28;20496;-63
2022/10/06 00:37:01;;;;;;;2.67;2.45;;;;;;;;;;5035151;28;20030;-63
2022/10/06 00:39:26;;;;;;;3.38;2.60;;;;;;;;;;5035434;28;20026;-63
2022/10/06 00:41:52;;;;;;;3.22;2.40;;;;;;;;;;5033619;28;20497;-63
2022/10/06 00:44:17;;;;;;;3.00;2.35;;;;;;;;;;5035269;28;20021;-63
2022/10/06 00:46:46;;;;;;;2.50;2.30;;;;;;;;;;5035158;28;20041;-63
2022/10/06 00:49:20;;;;;;;2.93;2.50;;;;;;;;;;5034925;28;20065;-63
2022/10/06 00:51:58;;;;;;;2.67;2.35;;;;;;;;;;5035220;28;20067;-63
2022/10/06 00:54:24;;;;;;;2.78;2.38;;;;;;;;;;5034706;28;20477;-63
2022/10/06 00:56:50;;;;;;;2.60;2.40;;;;;;;;;;5035119;28;20040;-63
2022/10/06 00:59:17;;;;;;;3.38;2.47;;;;;;;;;;5035013;28;20029;-63
2022/10/06 01:01:59;;;;;;;2.60;2.40;;;;;;;;;;5034578;28;20026;-63
2022/10/06 01:04:24;;;;;;;2.90;2.60;;;;;;;;;;5033754;28;20018;-63
2022/10/06 01:06:56;;;;;;;2.60;2.40;;;;;;;;;;5034765;28;20383;-63
2022/10/06 01:09:22;;;;;;;2.83;2.55;;;;;;;;;;5034830;28;20030;-63
2022/10/06 01:11:52;;;;;;;3.05;2.50;;;;;;;;;;5034845;28;20147;-65
2022/10/06 01:14:19;;;;;;;2.92;2.35;;;;;;;;;;5034547;28;20033;-63
2022/10/06 01:16:50;;;;;;;2.78;2.47;;;;;;;;;;5034840;28;20065;-63
2022/10/06 01:19:52;;;;;;;2.67;2.42;;;;;;;;;;5034664;28;20025;-63
2022/10/06 01:22:33;;;;;;;3.20;2.40;;;;;;;;;;5034397;28;20535;-63
2022/10/06 01:24:58;;;;;;;2.47;2.28;;;;;;;;;;5034189;28;20041;-68
2022/10/06 01:27:27;;;;;;;3.63;2.25;;;;;;;;;;5034170;28;20029;-63
2022/10/06 01:29:54;;;;;;;2.45;2.25;;;;;;;;;;5066287;28;20087;-64
2022/10/06 01:32:22;;;;;;;2.78;2.53;;;;;;;;;;5034052;28;20063;-67
2022/10/06 01:34:47;;;;;;;2.67;2.47;;;;;;;;;;5065834;28;20025;-63
2022/10/06 01:37:13;;;;;;;2.80;2.50;;;;;;;;;;5034564;28;20396;-64
2022/10/06 01:39:39;;;;;;;3.05;2.40;;;;;;;;;;5033978;28;20377;-65
2022/10/06 01:42:05;;;;;;;2.83;2.40;;;;;;;;;;5033978;28;20100;-65
2022/10/06 01:44:30;;;;;;;3.67;2.30;;;;;;;;;;5034168;28;20112;-63
2022/10/06 01:46:56;;;;;;;2.70;2.50;;;;;;;;;;5034052;28;20408;-68
2022/10/06 01:49:21;;;;;;;3.10;2.60;;;;;;;;;;5032549;28;20079;-65
2022/10/06 01:51:47;;;;;;;3.08;2.42;;;;;;;;;;5033950;28;20022;-69
2022/10/06 01:54:13;;;;;;;3.33;2.90;;;;;;;;;;5034033;28;20543;-66
2022/10/06 01:56:38;;;;;;;2.35;2.15;;;;;;;;;;5032482;28;20052;-64
2022/10/06 01:59:04;;;;;;;2.40;2.20;;;;;;;;;;5033549;28;20076;-64
2022/10/06 02:01:30;;;;;;;3.05;2.30;;;;;;;;;;5033668;28;20130;-68
2022/10/06 02:03:55;;;;;;;3.10;2.55;;;;;;;;;;5033549;28;20017;-67
2022/10/06 02:06:21;;;;;;;2.60;2.40;;;;;;;;;;5033236;28;20033;-63
2022/10/06 02:08:46;;;;;;;2.92;2.30;;;;;;;;;;5033721;28;20021;-64
2022/10/06 02:11:12;;;;;;;2.67;2.47;;;;;;;;;;5033436;28;20615;-66
2022/10/06 02:13:38;;;;;;;2.72;2.33;;;;;;;;;;5033582;28;20025;-65
2022/10/06 02:16:05;;;;;;;2.50;2.30;;;;;;;;;;5033236;28;20508;-67
2022/10/06 02:18:32;;;;;;;3.47;2.25;;;;;;;;;;5033214;28;20025;-63
2022/10/06 02:20:58;;;;;;;3.28;2.65;;;;;;;;;;5033196;28;20071;-67
2022/10/06 02:23:23;;;;;;;3.25;2.70;;;;;;;;;;5033206;28;20029;-67
2022/10/06 02:25:49;;;;;;;3.92;2.47;;;;;;;;;;5033317;28;20056;-63
2022/10/06 02:28:15;;;;;;;3.45;2.45;;;;;;;;;;5033369;28;20021;-64
2022/10/06 02:30:41;;;;;;;3.05;2.50;;;;;;;;;;5033007;28;20029;-66
2022/10/06 02:33:06;;;;;;;2.80;2.40;;;;;;;;;;5032920;28;20041;-63
2022/10/06 02:35:32;;;;;;;2.28;2.08;;;;;;;;;;5033223;28;20033;-63
2022/10/06 02:37:57;;;;;;;2.90;2.45;;;;;;;;;;5064916;28;20489;-63
2022/10/06 02:40:23;;;;;;;2.50;2.30;;;;;;;;;;5032834;28;20048;-63
2022/10/06 02:42:48;;;;;;;4.28;2.70;;;;;;;;;;5032750;28;20409;-65
2022/10/06 02:45:14;;;;;;;2.55;2.35;;;;;;;;;;5032932;28;20163;-65
2022/10/06 02:47:40;;;;;;;3.95;2.65;;;;;;;;;;5032761;28;20113;-63
2022/10/06 02:50:06;;;;;;;2.72;2.20;;;;;;;;;;5033029;28;20022;-63
2022/10/06 02:52:34;;;;;;;2.40;2.20;;;;;;;;;;5064562;28;20075;-63
2022/10/06 02:55:01;;;;;;;3.17;2.50;;;;;;;;;;5032646;28;20037;-63
2022/10/06 02:57:27;;;;;;;5.00;2.30;;;;;;;;;;5032909;28;20029;-63
2022/10/06 02:59:52;;;;;;;3.88;2.90;;;;;;;;;;5032519;28;20496;-63
2022/10/06 03:02:17;;;;;;;2.95;2.28;;;;;;;;;;5032900;28;20036;-64
2022/10/06 03:04:43;;;;;;;2.60;2.40;;;;;;;;;;5032685;28;20580;-63
2022/10/06 03:07:08;;;;;;;2.90;2.53;;;;;;;;;;5032533;28;20024;-63
2022/10/06 03:09:34;;;;;;;2.50;2.30;;;;;;;;;;5032574;28;20033;-63
2022/10/06 03:12:00;;;;;;;3.58;2.17;;;;;;;;;;5032473;28;20024;-63
2022/10/06 03:14:25;;;;;;;2.58;2.10;;;;;;;;;;5032439;28;20034;-63
2022/10/06 03:16:51;;;;;;;2.58;2.38;;;;;;;;;;5032438;28;20080;-66
2022/10/06 03:19:16;;;;;;;2.65;2.45;;;;;;;;;;5032849;28;20043;-63
2022/10/06 03:21:42;;;;;;;3.08;2.47;;;;;;;;;;5032418;28;20057;-64
2022/10/06 03:24:09;;;;;;;2.40;2.20;;;;;;;;;;5032334;28;20025;-65
2022/10/06 03:26:40;;;;;;;3.25;2.40;;;;;;;;;;5032803;28;20048;-65
2022/10/06 03:29:05;;;;;;;2.50;2.30;;;;;;;;;;5035198;28;20068;-63
2022/10/06 03:31:31;;;;;;;2.65;2.30;;;;;;;;;;5036656;28;20421;-63
2022/10/06 03:33:57;;;;;;;3.10;2.20;;;;;;;;;;5036383;28;20523;-69
2022/10/06 03:36:25;;;;;;;3.10;2.38;;;;;;;;;;5036622;28;20037;-64
2022/10/06 03:38:51;;;;;;;2.55;2.28;;;;;;;;;;5036220;28;20029;-67
2022/10/06 03:41:18;;;;;;;2.50;2.30;;;;;;;;;;5036287;28;20506;-63
2022/10/06 03:43:46;;;;;;;2.60;2.40;;;;;;;;;;5036163;28;20029;-63
2022/10/06 03:46:14;;;;;;;2.30;2.08;;;;;;;;;;5036335;28;20025;-64
2022/10/06 03:48:39;;;;;;;3.10;2.28;;;;;;;;;;5036377;28;20038;-67
2022/10/06 03:51:11;;;;;;;2.45;2.25;;;;;;;;;;5035931;28;20029;-64
2022/10/06 03:53:37;;;;;;;2.40;2.20;;;;;;;;;;5036309;28;20029;-67
2022/10/06 03:56:09;;;;;;;2.60;2.40;;;;;;;;;;5035930;28;20503;-63
2022/10/06 03:58:38;;;;;;;2.85;2.40;;;;;;;;;;5035976;28;20029;-67
2022/10/06 04:01:09;;;;;;;2.50;2.22;;;;;;;;;;5035869;28;20085;-64
2022/10/06 04:03:35;;;;;;;2.70;2.10;;;;;;;;;;5034600;28;20025;-66
2022/10/06 04:06:03;;;;;;;2.35;2.10;;;;;;;;;;5035962;28;20029;-64
2022/10/06 04:08:29;;;;;;;2.38;2.17;;;;;;;;;;5035911;28;20030;-64
2022/10/06 04:11:02;;;;;;;2.55;2.33;;;;;;;;;;5035686;28;20029;-67
2022/10/06 04:13:28;;;;;;;2.38;2.17;;;;;;;;;;5035960;28;20250;-67
2022/10/06 04:15:53;;;;;;;2.53;2.33;;;;;;;;;;5035590;28;20267;-64
2022/10/06 04:18:19;;;;;;;2.47;2.28;;;;;;;;;;5035548;28;20080;-67
2022/10/06 04:20:44;;;;;;;2.88;2.58;;;;;;;;;;5035434;28;20030;-64
2022/10/06 04:23:10;;;;;;;2.50;2.30;;;;;;;;;;5035429;28;20029;-66
2022/10/06 04:25:35;;;;;;;3.08;2.40;;;;;;;;;;5034089;28;20025;-66
2022/10/06 04:28:01;;;;;;;2.40;2.20;;;;;;;;;;5035593;28;20386;-66
2022/10/06 04:30:26;;;;;;;2.50;2.30;;;;;;;;;;5035538;28;20028;-64
2022/10/06 04:32:52;;;;;;;2.47;2.28;;;;;;;;;;5035278;28;20194;-64
2022/10/06 04:35:18;;;;;;;2.55;2.35;;;;;;;;;;5035184;28;20041;-66
2022/10/06 04:37:43;;;;;;;2.53;2.20;;;;;;;;;;5033577;28;20029;-63
2022/10/06 04:40:09;;;;;;;3.17;2.50;;;;;;;;;;5035025;28;20163;-64
2022/10/06 04:42:35;;;;;;;2.38;2.17;;;;;;;;;;5034781;28;20048;-63
2022/10/06 04:45:02;;;;;;;2.58;2.35;;;;;;;;;;5035225;28;20037;-63
2022/10/06 04:47:28;;;;;;;2.50;2.30;;;;;;;;;;5034680;28;20018;-64
2022/10/06 04:49:53;;;;;;;2.50;2.30;;;;;;;;;;5034832;28;20025;-63
2022/10/06 04:52:19;;;;;;;2.33;2.10;;;;;;;;;;5034749;28;20025;-63
2022/10/06 04:54:44;;;;;;;3.53;2.47;;;;;;;;;;5035013;28;20037;-71
2022/10/06 04:57:10;;;;;;;2.50;2.30;;;;;;;;;;5034541;28;20518;-62
2022/10/06 05:02:20;;;;;;;2.45;2.25;;;;;;;;;;5035052;28;20051;-64
2022/10/06 05:04:45;;;;;;;2.38;2.17;;;;;;;;;;5034730;28;20116;-64
2022/10/06 05:07:11;;;;;;;2.97;2.38;;;;;;;;;;5034609;28;20017;-65
2022/10/06 05:09:36;;;;;;;2.65;2.45;;;;;;;;;;5034925;28;20381;-64
2022/10/06 05:12:02;;;;;;;2.72;2.50;;;;;;;;;;5034451;28;20112;-66
2022/10/06 05:14:27;;;;;;;2.67;2.45;;;;;;;;;;5028735;28;20014;-65
2022/10/06 05:16:53;;;;;;;2.33;2.13;;;;;;;;;;5028345;28;20053;-65
2022/10/06 05:19:18;;;;;;;3.08;2.20;;;;;;;;;;5028480;28;20022;-70
2022/10/06 05:21:44;;;;;;;2.70;2.45;;;;;;;;;;5028626;28;20504;-68
2022/10/06 05:24:09;;;;;;;2.63;2.42;;;;;;;;;;5029115;28;20812;-65
2022/10/06 05:26:35;;;;;;;2.53;2.33;;;;;;;;;;5027490;28;20026;-66
2022/10/06 05:29:01;;;;;;;2.67;2.47;;;;;;;;;;5028451;28;20034;-65
2022/10/06 05:31:31;;;;;;;2.63;2.42;;;;;;;;;;5053478;28;20492;-65
2022/10/06 05:33:58;;;;;;;7.72;2.60;;;;;;;;;;5026520;28;20029;-65
2022/10/06 05:36:26;;;;;;;2.85;2.50;;;;;;;;;;5029051;28;20044;-66
2022/10/06 05:38:52;;;;;;;2.75;2.50;;;;;;;;;;5031954;28;20032;-70
2022/10/06 05:41:20;;;;;;;4.13;2.78;;;;;;;;;;5033707;28;20022;-64
2022/10/06 05:43:47;;;;;;;3.20;2.72;;;;;;;;;;5033109;28;20053;-68
2022/10/06 05:46:19;;;;;;;2.65;2.42;;;;;;;;;;5032273;28;20061;-69
2022/10/06 05:48:49;;;;;;;3.35;2.58;;;;;;;;;;5032378;28;20025;-68
2022/10/06 05:51:16;;;;;;;;;;;;;;;;;;5031007;28;20029;-71
2022/10/06 05:53:41;;;;;;;3.03;2.72;;;;;;;;;;5031638;28;19912;-66
2022/10/06 05:56:15;;;;;;;3.20;2.90;;;;;;;;;;5031293;28;20029;-68
2022/10/06 05:58:43;;;;;;;3.25;2.95;;;;;;;;;;5032272;28;20052;-66
2022/10/06 06:01:13;;;;;;;3.35;2.67;;;;;;;;;;5032271;28;20438;-66
2022/10/06 06:03:40;;;;;;;3.20;2.90;;;;;;;;;;5029281;28;20545;-67
2022/10/06 06:06:26;;;;;;;3.35;3.05;;;;;;;;;;5015768;28;20069;-70
2022/10/06 06:08:56;;;;;;;3.70;3.30;;;;;;;;;;5019183;28;20021;-70
2022/10/06 06:11:25;;;;;;;5.00;4.10;;;;;;;;;;5032031;28;20112;-70
2022/10/06 06:14:12;;;;;;;5.93;3.90;;;;;;;;;;5064385;28;20510;-70
2022/10/06 06:16:38;;;;;;;4.38;3.78;;;;;;;;;;5031892;28;20075;-69
2022/10/06 06:19:05;;;;;;;4.57;3.47;;;;;;;;;;5032851;28;20037;-68
2022/10/06 06:21:31;;;;;;;4.05;3.60;;;;;;;;;;5031726;28;20057;-69
2022/10/06 06:23:57;;;;;;;5.20;4.47;;;;;;;;;;5028729;28;20108;-69
2022/10/06 06:26:27;;;;;;;4.10;3.70;;;;;;;;;;5030008;28;20100;-72
2022/10/06 06:28:55;;;;;;;4.05;3.70;;;;;;;;;;5031417;28;20116;-72
2022/10/06 06:31:26;;;;;;;4.32;3.70;;;;;;;;;;5030873;28;20068;-73
2022/10/06 06:33:53;;;;;;;4.60;3.67;;;;;;;;;;5031620;28;20104;-72
2022/10/06 06:36:28;;;;;;;8.48;3.95;;;;;;;;;;5031520;28;20037;-68
2022/10/06 06:38:55;;;;;;;5.13;3.88;;;;;;;;;;5031648;28;20126;-72
2022/10/06 06:41:27;;;;;;;5.10;4.35;;;;;;;;;;5030998;28;20039;-72
2022/10/06 06:43:53;;;;;;;6.97;4.28;;;;;;;;;;5029832;28;20029;-73
2022/10/06 06:46:23;;;;;;;4.93;3.67;;;;;;;;;;5031540;28;20025;-70
2022/10/06 06:48:51;;;;;;;4.50;3.53;;;;;;;;;;5031019;28;20469;-69
2022/10/06 06:51:20;;;;;;;6.68;4.43;;;;;;;;;;5031550;28;20030;-69
2022/10/06 06:53:45;;;;;;;5.57;3.90;;;;;;;;;;5031630;28;20039;-68
2022/10/06 06:56:10;;;;;;;5.45;4.38;;;;;;;;;;5030960;28;20108;-70
2022/10/06 06:58:36;;;;;;;4.97;4.45;;;;;;;;;;5031344;28;20377;-69
2022/10/06 07:01:12;;;;;;;5.97;4.70;;;;;;;;;;5031324;28;20029;-67
2022/10/06 07:03:39;;;;;;;4.95;4.20;;;;;;;;;;5030702;28;20553;-74
2022/10/06 07:06:08;;;;;;;4.82;4.28;;;;;;;;;;5029172;28;20069;-67
2022/10/06 07:08:36;;;;;;;5.60;4.37;;;;;;;;;;5012050;28;20072;-70
2022/10/06 07:11:19;;;;;;;8.20;4.50;;;;;;;;;;5011649;28;20022;-68
2022/10/06 07:13:46;;;;;;;6.55;4.65;;;;;;;;;;5011028;28;20053;-70
2022/10/06 07:27:11;;;;;;;7.10;4.55;;;;;;;;;;5010699;28;20049;-65
2022/10/06 07:29:36;;;;;;;5.97;4.78;;;;;;;;;;5010742;28;20033;-66
2022/10/06 07:32:02;;;;;;;5.65;4.63;;;;;;;;;;5010958;28;20061;-66
2022/10/06 07:34:29;;;;;;;6.50;4.55;;;;;;;;;;5011084;28;20026;-66
2022/10/06 07:36:55;;;;;;;7.05;4.88;;;;;;;;;;5021699;28;20036;-66
2022/10/06 07:39:21;;;;;;;6.07;4.85;;;;;;;;;;5029211;28;20017;-68
2022/10/06 07:41:46;;;;;;;7.90;4.78;;;;;;;;;;5015146;28;20049;-68
2022/10/06 07:44:12;;;;;;;6.35;4.80;;;;;;;;;;5027473;28;20118;-66
2022/10/06 07:46:37;;;;;;;7.03;5.05;;;;;;;;;;5021905;28;20045;-64
2022/10/06 07:49:03;;;;;;;9.88;5.43;;;;;;;;;;5027170;28;20232;-67
2022/10/06 07:51:28;;;;;;;7.20;5.03;;;;;;;;;;5030625;28;20037;-66
2022/10/06 07:53:54;;;;;;;7.72;4.75;;;;;;;;;;5028468;28;20049;-66
2022/10/06 07:56:20;;;;;;;6.65;5.20;;;;;;;;;;5010958;28;20053;-67
2022/10/06 07:58:50;;;;;;;14.85;5.43;;;;;;;;;;5020463;28;20113;-67
2022/10/06 08:01:17;;;;;;;9.75;5.25;;;;;;;;;;5062188;28;20025;-67
2022/10/06 08:03:47;;;;;;;9.20;5.13;;;;;;;;;;5030224;28;20436;-67
2022/10/06 08:06:16;;;;;;;8.38;5.15;;;;;;;;;;5030230;28;20049;-65
2022/10/06 08:08:45;;;;;;;6.30;4.50;;;;;;;;;;5030408;28;20070;-66
2022/10/06 08:11:12;;;;;;;7.78;5.40;;;;;;;;;;5030205;28;20029;-66
2022/10/06 08:13:41;;;;;;;7.22;5.00;;;;;;;;;;5032333;28;20091;-66
2022/10/06 08:16:13;;;;;;;9.38;5.15;;;;;;;;;;5031902;28;20043;-67
2022/10/06 08:18:39;;;;;;;7.63;4.88;;;;;;;;;;5027599;28;20351;-67
2022/10/06 08:21:10;;;;;;;8.63;5.35;;;;;;;;;;5032792;28;20021;-67
2022/10/06 08:23:41;;;;;;;8.43;5.25;;;;;;;;;;5033853;28;20040;-66
2022/10/06 08:26:07;;;;;;;8.50;5.53;;;;;;;;;;5033552;28;20037;-66
2022/10/06 08:28:34;;;;;;;7.15;5.10;;;;;;;;;;5033660;28;20599;-66
2022/10/06 08:31:12;;;;;;;6.82;5.00;;;;;;;;;;5033982;28;20025;-66
2022/10/06 08:33:38;;;;;;;5.90;4.53;;;;;;;;;;5033818;28;20033;-66
2022/10/06 08:36:23;;;;;;;7.70;4.78;;;;;;;;;;5033831;28;20358;-67
2022/10/06 08:38:49;;;;;;;6.85;4.82;;;;;;;;;;5033771;28;20029;-66
2022/10/06 08:41:43;;;;;;;8.30;5.07;;;;;;;;;;5033176;28;20504;-65
2022/10/06 08:44:15;;;;;;;13.90;5.20;;;;;;;;;;5033251;28;20037;-65
2022/10/06 08:46:45;;;;;;;6.00;4.72;;;;;;;;;;5033246;28;20033;-65
2022/10/06 08:49:17;;;;;;;7.78;4.70;;;;;;;;;;5032614;28;20033;-64
2022/10/06 08:51:53;;;;;;;5.82;4.53;;;;;;;;;;5033669;28;20037;-64
2022/10/06 08:55:02;;;;;;;5.15;4.30;;;;;;;;;;5033351;28;20068;-64
2022/10/06 08:57:40;;;;;;;5.72;4.53;;;;;;;;;;5033060;28;20069;-64
2022/10/06 09:00:13;;;;;;;6.20;4.65;;;;;;;;;;5033366;28;20013;-64
2022/10/06 09:02:44;;;;;;;5.55;4.45;;;;;;;;;;5033298;28;20053;-68
2022/10/06 09:05:13;;;;;;;10.43;4.90;;;;;;;;;;5032953;28;20051;-67
2022/10/06 09:08:04;;;;;;;13.07;5.22;;;;;;;;;;5033284;28;20064;-65
2022/10/06 09:11:07;;;;;;;6.07;4.60;;;;;;;;;;5033022;28;20053;-64
2022/10/06 09:13:39;;;;;;;9.55;4.90;;;;;;;;;;5032684;28;20501;-65
2022/10/06 09:16:08;;;;;;;10.50;4.88;;;;;;;;;;5032963;28;20064;-64
2022/10/06 09:18:48;;;;;;;7.87;4.50;;;;;;;;;;5029083;28;20014;-65
2022/10/06 09:21:17;;;;;;;9.93;4.65;;;;;;;;;;5031944;28;20501;-65
2022/10/06 09:23:51;;;;;;;5.43;4.33;;;;;;;;;;5029770;28;20097;-67
2022/10/06 09:26:28;;;;;;;5.47;4.43;;;;;;;;;;5030995;28;20036;-65
2022/10/06 09:28:55;;;;;;;6.90;4.70;;;;;;;;;;5029639;28;20053;-65
2022/10/06 09:31:21;;;;;;;6.32;4.20;;;;;;;;;;5032478;28;20497;-65
2022/10/06 09:34:14;;;;;;;7.35;4.57;;;;;;;;;;5032277;28;20034;-65
2022/10/06 09:36:59;;;;;;;7.78;4.25;;;;;;;;;;5029922;28;20119;-65
2022/10/06 09:39:31;;;;;;;7.22;4.38;;;;;;;;;;5023252;28;20117;-65
2022/10/06 09:42:01;;;;;;;8.60;4.38;;;;;;;;;;5023395;28;20133;-65
2022/10/06 09:44:30;;;;;;;7.15;4.45;;;;;;;;;;5020152;28;20068;-65
2022/10/06 09:46:57;;;;;;;6.32;4.28;;;;;;;;;;5012539;28;20062;-65
2022/10/06 09:49:24;;;;;;;9.55;4.05;;;;;;;;;;5012352;28;20389;-66
2022/10/06 09:52:13;;;;;;;8.88;4.70;;;;;;;;;;5012722;28;20184;-65
2022/10/06 09:54:42;;;;;;;5.22;4.22;;;;;;;;;;5012067;28;20389;-66
2022/10/06 09:57:30;;;;;;;6.82;4.38;;;;;;;;;;5012530;28;20041;-65
2022/10/06 09:59:57;;;;;;;6.88;4.25;;;;;;;;;;5012509;28;20021;-65
2022/10/06 10:02:36;;;;;;;6.40;4.53;;;;;;;;;;5012380;28;20120;-65
2022/10/06 10:05:17;;;;;;;6.40;4.43;;;;;;;;;;5018815;28;20731;-65
2022/10/06 10:07:43;;;;;;;7.20;4.40;;;;;;;;;;5018513;28;20536;-65
2022/10/06 10:10:26;;;;;;;7.10;4.25;;;;;;;;;;5019273;28;20030;-66
2022/10/06 10:12:57;;;;;;;5.65;4.18;;;;;;;;;;5012105;28;20026;-65
2022/10/06 10:15:24;;;;;;;5.00;4.22;;;;;;;;;;5020853;28;20193;-66
2022/10/06 10:17:56;;;;;;;5.78;4.55;;;;;;;;;;5026090;28;20404;-65
2022/10/06 10:20:27;;;;;;;4.30;3.90;;;;;;;;;;5011801;28;20172;-66
2022/10/06 10:22:58;;;;;;;4.22;3.83;;;;;;;;;;5011852;28;20030;-66
2022/10/06 10:26:00;;;;;;;6.05;3.80;;;;;;;;;;5018648;28;20352;-65
2022/10/06 10:28:56;;;;;;;5.45;3.80;;;;;;;;;;5025823;28;20033;-66
2022/10/06 10:31:43;;;;;;;6.03;3.90;;;;;;;;;;5026474;28;20026;-66
2022/10/06 10:34:46;;;;;;;4.03;3.60;;;;;;;;;;5013029;28;20145;-66
2022/10/06 10:37:32;;;;;;;5.72;3.55;;;;;;;;;;5019419;28;20037;-66
2022/10/06 10:40:34;;;;;;;6.22;3.70;;;;;;;;;;5027524;28;20037;-66
2022/10/06 10:43:28;;;;;;;4.30;3.70;;;;;;;;;;5030312;28;20033;-66
2022/10/06 10:46:21;;;;;;;4.85;3.30;;;;;;;;;;5030926;28;20099;-66
2022/10/06 10:49:19;;;;;;;3.78;3.30;;;;;;;;;;5031317;28;20030;-66
2022/10/06 10:52:02;;;;;;;4.47;3.55;;;;;;;;;;5031346;28;20083;-66
2022/10/06 10:54:38;;;;;;;3.88;3.42;;;;;;;;;;5031086;28;20029;-66
2022/10/06 10:57:08;;;;;;;5.30;3.63;;;;;;;;;;5031235;28;20350;-66
2022/10/06 10:59:42;;;;;;;5.22;3.63;;;;;;;;;;5030915;28;20036;-67
2022/10/06 11:02:21;;;;;;;6.30;3.60;;;;;;;;;;5030979;28;20035;-66
2022/10/06 11:04:50;;;;;;;5.18;3.90;;;;;;;;;;5011136;28;20117;-66
2022/10/06 11:07:43;;;;;;;6.32;3.60;;;;;;;;;;5011379;28;20033;-66
2022/10/06 11:10:30;;;;;;;4.65;3.67;;;;;;;;;;5011232;28;20026;-66
2022/10/06 11:12:55;;;;;;;4.07;3.67;;;;;;;;;;5011449;28;20046;-66
2022/10/06 11:15:43;;;;;;;9.93;4.20;;;;;;;;;;5011324;28;20442;-67
2022/10/06 11:18:38;;;;;;;5.93;4.38;;;;;;;;;;5010956;28;20152;-67
2022/10/06 11:21:12;;;;;;;5.15;3.70;;;;;;;;;;5030447;28;20033;-67
2022/10/06 11:24:00;;;;;;;8.73;3.80;;;;;;;;;;5030587;28;20034;-67
2022/10/06 11:27:02;;;;;;;6.07;3.33;;;;;;;;;;5030408;28;20604;-67
2022/10/06 11:29:48;;;;;;;4.45;3.75;;;;;;;;;;5031170;28;20124;-67
2022/10/06 11:32:26;;;;;;;4.10;3.70;;;;;;;;;;5028746;28;20393;-67
2022/10/06 11:34:52;;;;;;;5.38;4.03;;;;;;;;;;5010849;28;20464;-67
2022/10/06 11:37:33;;;;;;;6.88;3.90;;;;;;;;;;5010681;28;20057;-67
2022/10/06 11:40:27;;;;;;;6.47;3.67;;;;;;;;;;5011019;28;20454;-67
2022/10/06 11:43:07;;;;;;;4.93;3.70;;;;;;;;;;5010600;28;20169;-67
2022/10/06 11:45:46;;;;;;;5.75;4.20;;;;;;;;;;5011096;28;20211;-67
2022/10/06 11:48:17;;;;;;;4.17;3.77;;;;;;;;;;5012063;28;20057;-67
2022/10/06 11:50:47;;;;;;;5.97;4.00;;;;;;;;;;5015212;28;20371;-67
2022/10/06 11:53:31;;;;;;;4.90;3.70;;;;;;;;;;5014703;28;20474;-67
2022/10/06 11:56:15;;;;;;;3.70;3.30;;;;;;;;;;5022675;28;20048;-67
2022/10/06 11:58:50;;;;;;;6.60;3.97;;;;;;;;;;5014212;28;20065;-66
2022/10/06 12:01:31;;;;;;;4.20;3.80;;;;;;;;;;5014565;28;20486;-66
2022/10/06 12:04:13;;;;;;;4.20;3.80;;;;;;;;;;5034262;28;20163;-68
2022/10/06 12:06:42;;;;;;;8.63;3.85;;;;;;;;;;5033996;28;20034;-66
2022/10/06 12:09:31;;;;;;;4.35;3.50;;;;;;;;;;5034141;28;20072;-66
2022/10/06 12:12:17;;;;;;;3.72;3.35;;;;;;;;;;5033998;28;20033;-67
2022/10/06 12:14:53;;;;;;;4.45;3.15;;;;;;;;;;5031440;28;20071;-67
2022/10/06 12:17:47;;;;;;;5.30;4.28;;;;;;;;;;5031864;28;20029;-66
2022/10/06 12:20:17;;;;;;;6.10;3.22;;;;;;;;;;5033387;28;20034;-68
2022/10/06 12:22:45;;;;;;;4.43;3.50;;;;;;;;;;5033996;28;20454;-66
2022/10/06 12:25:29;;;;;;;3.92;3.20;;;;;;;;;;5033589;28;20084;-66
2022/10/06 12:28:00;;;;;;;4.00;3.60;;;;;;;;;;5034106;28;20029;-66
2022/10/06 12:30:41;;;;;;;6.53;3.58;;;;;;;;;;5030013;28;20481;-66
2022/10/06 12:33:15;;;;;;;3.25;2.95;;;;;;;;;;5032230;28;20037;-70
2022/10/06 12:35:41;;;;;;;3.92;3.45;;;;;;;;;;5033368;28;20079;-68
2022/10/06 12:38:40;;;;;;;3.47;3.15;;;;;;;;;;5033607;28;20033;-68
2022/10/06 12:41:11;;;;;;;5.15;3.20;;;;;;;;;;5033636;28;20400;-69
2022/10/06 12:43:50;;;;;;;4.72;3.78;;;;;;;;;;5028899;28;20127;-69
2022/10/06 12:46:27;;;;;;;4.38;3.00;;;;;;;;;;5020907;28;20034;-68
2022/10/06 12:49:00;;;;;;;3.85;3.38;;;;;;;;;;5027461;28;20052;-69
2022/10/06 12:51:34;;;;;;;3.90;3.50;;;;;;;;;;5030702;28;20127;-69
2022/10/06 12:54:21;;;;;;;3.50;3.20;;;;;;;;;;5029937;28;20091;-70
2022/10/06 12:57:17;;;;;;;3.65;3.30;;;;;;;;;;5033255;28;20568;-70
2022/10/06 12:59:43;;;;;;;4.85;3.30;;;;;;;;;;5032494;28;20176;-68
2022/10/06 13:02:17;;;;;;;3.60;3.30;;;;;;;;;;5033208;28;20113;-69
2022/10/06 13:05:08;;;;;;;4.85;3.40;;;;;;;;;;5021974;28;20060;-68
2022/10/06 13:07:57;;;;;;;5.55;3.50;;;;;;;;;;5013224;28;20025;-69
2022/10/06 13:10:23;;;;;;;5.60;3.28;;;;;;;;;;5025968;28;20432;-68
2022/10/06 13:12:51;;;;;;;3.50;3.20;;;;;;;;;;5024079;28;20108;-70
2022/10/06 13:15:21;;;;;;;3.40;3.10;;;;;;;;;;5030539;28;20432;-71
2022/10/06 13:17:48;;;;;;;3.72;2.92;;;;;;;;;;5020413;28;20095;-71
2022/10/06 13:20:38;;;;;;;4.57;3.20;;;;;;;;;;5021649;28;20096;-71
2022/10/06 13:23:22;;;;;;;3.65;3.00;;;;;;;;;;5015464;28;20034;-69
2022/10/06 13:25:59;;;;;;;5.00;3.30;;;;;;;;;;5027759;28;20112;-70
2022/10/06 13:28:27;;;;;;;3.58;2.72;;;;;;;;;;5028705;28;20041;-70
2022/10/06 13:31:00;;;;;;;3.55;3.22;;;;;;;;;;5014468;28;20034;-69
2022/10/06 13:33:32;;;;;;;3.42;3.00;;;;;;;;;;5025315;28;20489;-70
2022/10/06 13:35:58;;;;;;;3.10;2.80;;;;;;;;;;5032762;28;20057;-68
2022/10/06 13:38:24;;;;;;;4.50;2.90;;;;;;;;;;5031171;28;20417;-68
2022/10/06 13:41:36;;;;;;;4.15;3.38;;;;;;;;;;5032353;28;20064;-70
2022/10/06 13:44:26;;;;;;;3.05;2.78;;;;;;;;;;5019030;28;20046;-70
2022/10/06 13:46:54;;;;;;;6.13;3.30;;;;;;;;;;5015768;28;20030;-70
2022/10/06 13:49:34;;;;;;;3.95;2.90;;;;;;;;;;5011873;28;20470;-70
2022/10/06 13:52:04;;;;;;;5.60;3.30;;;;;;;;;;5012246;28;20379;-68
2022/10/06 13:54:33;;;;;;;;;;;;;;;;;;5012081;28;20029;-68
2022/10/06 13:56:59;;;;;;;6.82;3.20;;;;;;;;;;5011552;28;20296;-70
2022/10/06 13:59:36;;;;;;;6.35;3.20;;;;;;;;;;5012131;28;20072;-69
2022/10/06 14:02:16;;;;;;;3.30;3.00;;;;;;;;;;5012240;28;20084;-70
2022/10/06 14:04:42;;;;;;;3.85;2.83;;;;;;;;;;5012403;28;20060;-68
2022/10/06 14:07:11;;;;;;;4.32;3.20;;;;;;;;;;5011996;28;20107;-71
2022/10/06 14:09:37;;;;;;;3.35;3.05;;;;;;;;;;5014335;28;20033;-67
2022/10/06 14:12:13;;;;;;;3.40;3.10;;;;;;;;;;5029224;28;20033;-68
2022/10/06 14:14:48;;;;;;;5.95;3.20;;;;;;;;;;5030827;28;20127;-67
2022/10/06 14:17:24;;;;;;;4.07;3.00;;;;;;;;;;5031099;28;20040;-68
2022/10/06 14:19:50;;;;;;;3.35;3.05;;;;;;;;;;5031955;28;20545;-68
2022/10/06 14:22:33;;;;;;;3.75;2.70;;;;;;;;;;5031636;28;20052;-68
2022/10/06 14:24:59;;;;;;;3.85;3.28;;;;;;;;;;5030482;28;20420;-67
2022/10/06 14:27:25;;;;;;;3.83;2.78;;;;;;;;;;5031251;28;20033;-67
2022/10/06 14:29:50;;;;;;;3.80;2.90;;;;;;;;;;5031681;28;20029;-67
2022/10/06 14:32:16;;;;;;;3.20;2.90;;;;;;;;;;5031356;28;20350;-69
2022/10/06 14:34:43;;;;;;;3.60;2.78;;;;;;;;;;5025944;28;20056;-66
2022/10/06 14:37:14;;;;;;;4.43;3.08;;;;;;;;;;5027454;28;20043;-66
2022/10/06 14:39:44;;;;;;;4.55;3.00;;;;;;;;;;5028162;28;20025;-70
2022/10/06 14:42:11;;;;;;;3.85;3.20;;;;;;;;;;5028761;28;20116;-67
2022/10/06 14:44:38;;;;;;;3.60;3.30;;;;;;;;;;5030294;28;20041;-67
2022/10/06 14:47:05;;;;;;;5.20;2.88;;;;;;;;;;5030910;28;20029;-68
2022/10/06 14:49:31;;;;;;;4.63;3.17;;;;;;;;;;5031539;28;20401;-68
2022/10/06 14:51:57;;;;;;;3.97;3.08;;;;;;;;;;5031369;28;20465;-67
2022/10/06 14:54:23;;;;;;;3.63;3.10;;;;;;;;;;5029295;28;21547;-69
2022/10/06 14:56:52;;;;;;;4.65;3.03;;;;;;;;;;5029177;28;20032;-67
2022/10/06 14:59:19;;;;;;;5.20;3.23;;;;;;;;;;5031276;28;20049;-68
2022/10/06 15:01:45;;;;;;;4.40;2.97;;;;;;;;;;5029868;28;20249;-68
2022/10/06 15:04:18;;;;;;;6.88;3.67;;;;;;;;;;5031078;28;20029;-67
2022/10/06 15:09:28;;;;;;;5.30;3.33;;;;;;;;;;5031154;28;20063;-67
2022/10/06 15:11:54;;;;;;;4.90;3.50;;;;;;;;;;5030752;28;20457;-67
2022/10/06 15:14:21;;;;;;;3.30;2.90;;;;;;;;;;5030947;28;20029;-68
2022/10/06 15:16:47;;;;;;;3.47;3.17;;;;;;;;;;5030772;28;20040;-68
2022/10/06 15:19:13;;;;;;;3.80;3.30;;;;;;;;;;5031045;28;20037;-67
2022/10/06 15:21:45;;;;;;;5.70;3.45;;;;;;;;;;5030471;28;20036;-68
2022/10/06 15:24:13;;;;;;;5.97;4.00;;;;;;;;;;5030202;28;20083;-67